createdAt,value
2018-04-12T00:00:57.658Z,77.10
2018-04-12T00:03:25.472Z,77.10
2018-04-12T00:05:53.774Z,77.70
2018-04-12T00:08:21.951Z,77.60
2018-04-12T00:10:49.442Z,77.90
2018-04-12T00:13:18.060Z,78.00
2018-04-12T00:15:48.885Z,78.30
2018-04-12T00:18:20.804Z,78.30
2018-04-12T00:23:23.105Z,78.30
2018-04-12T00:25:50.617Z,78.50
2018-04-12T00:28:18.108Z,78.40
2018-04-12T00:30:46.346Z,78.80
2018-04-12T00:33:14.602Z,79.20
2018-04-12T00:35:42.090Z,79.10
2018-04-12T00:38:10.359Z,79.50
2018-04-12T00:40:38.611Z,79.20
2018-04-12T00:43:06.087Z,79.10
2018-04-12T00:45:33.586Z,78.70
2018-04-12T00:48:01.853Z,78.40
2018-04-12T00:50:29.467Z,78.40
2018-04-12T00:52:56.941Z,78.30
2018-04-12T00:55:24.432Z,78.30
2018-04-12T00:57:51.911Z,78.00
2018-04-12T01:00:20.152Z,78.30
2018-04-12T01:02:48.414Z,77.80
2018-04-12T01:05:16.655Z,78.20
2018-04-12T01:07:44.132Z,77.40
2018-04-12T01:10:11.644Z,76.70
2018-04-12T01:12:39.951Z,76.00
2018-04-12T01:15:07.465Z,75.90
2018-04-12T01:17:35.735Z,76.10
2018-04-12T01:20:03.233Z,75.90
2018-04-12T01:22:30.707Z,75.70
2018-04-12T01:24:58.227Z,75.40
2018-04-12T01:27:25.819Z,75.40
2018-04-12T01:29:54.065Z,76.80
2018-04-12T01:32:22.315Z,76.10
2018-04-12T01:34:49.835Z,76.10
2018-04-12T01:37:17.321Z,76.40
2018-04-12T01:39:44.792Z,76.70
2018-04-12T01:42:12.302Z,76.60
2018-04-12T01:44:39.878Z,76.80
2018-04-12T01:47:07.382Z,76.90
2018-04-12T01:49:34.870Z,77.10
2018-04-12T01:52:02.410Z,77.40
2018-04-12T01:54:29.906Z,77.90
2018-04-12T01:56:58.155Z,78.20
2018-04-12T01:59:25.775Z,78.00
2018-04-12T02:01:53.267Z,78.50
2018-04-12T02:04:20.785Z,78.30
2018-04-12T02:06:48.271Z,78.10
2018-04-12T02:09:15.914Z,77.10
2018-04-12T02:11:43.564Z,77.00
2018-04-12T02:14:11.036Z,76.50
2018-04-12T02:16:38.518Z,75.60
2018-04-12T02:19:06.822Z,74.50
2018-04-12T02:21:34.319Z,74.50
2018-04-12T02:24:01.840Z,74.00
2018-04-12T02:26:29.335Z,73.70
2018-04-12T02:28:56.944Z,73.70
2018-04-12T02:31:24.440Z,73.80
2018-04-12T02:33:51.996Z,73.50
2018-04-12T02:36:19.492Z,72.80
2018-04-12T02:38:47.027Z,72.80
2018-04-12T02:41:15.292Z,72.30
2018-04-12T02:43:42.804Z,72.20
2018-04-12T02:46:10.272Z,72.20
2018-04-12T02:48:37.749Z,72.10
2018-04-12T02:51:05.285Z,72.40
2018-04-12T02:53:32.799Z,73.30
2018-04-12T02:56:00.285Z,74.00
2018-04-12T02:58:27.835Z,74.70
2018-04-12T03:00:55.361Z,74.80
2018-04-12T03:03:23.672Z,74.50
2018-04-12T03:05:51.319Z,74.50
2018-04-12T03:08:18.821Z,74.70
2018-04-12T03:10:46.443Z,75.20
2018-04-12T03:13:14.774Z,75.20
2018-04-12T03:15:43.054Z,75.10
2018-04-12T03:18:20.980Z,75.00
2018-04-12T03:20:48.450Z,74.90
2018-04-12T03:23:16.004Z,75.00
2018-04-12T03:25:44.278Z,74.60
2018-04-12T03:28:12.540Z,75.20
2018-04-12T03:30:40.152Z,75.20
2018-04-12T03:33:07.711Z,75.30
2018-04-12T03:35:36.735Z,75.80
2018-04-12T03:38:04.259Z,75.80
2018-04-12T03:40:31.748Z,76.10
2018-04-12T03:42:59.247Z,76.40
2018-04-12T03:45:27.348Z,76.70
2018-04-12T03:47:54.811Z,76.30
2018-04-12T03:50:22.370Z,76.50
2018-04-12T03:52:49.832Z,76.70
2018-04-12T03:55:17.308Z,76.80
2018-04-12T03:57:45.584Z,77.00
2018-04-12T04:00:13.856Z,76.70
2018-04-12T04:02:42.185Z,77.00
2018-04-12T04:05:09.760Z,76.30
2018-04-12T04:07:37.241Z,76.50
2018-04-12T04:10:05.531Z,76.40
2018-04-12T04:12:33.781Z,76.80
2018-04-12T04:15:22.249Z,76.80
2018-04-12T04:18:02.346Z,76.70
2018-04-12T04:20:41.993Z,76.70
2018-04-12T04:23:09.501Z,76.60
2018-04-12T04:25:37.037Z,76.20
2018-04-12T04:28:04.537Z,75.90
2018-04-12T04:30:32.160Z,75.60
2018-04-12T04:32:59.652Z,75.00
2018-04-12T04:35:27.172Z,74.00
2018-04-12T04:37:54.722Z,73.10
2018-04-12T04:40:22.254Z,73.00
2018-04-12T04:42:50.498Z,73.80
2018-04-12T04:45:18.022Z,73.70
2018-04-12T04:47:45.516Z,73.70
2018-04-12T04:50:13.060Z,73.80
2018-04-12T04:52:40.551Z,74.10
2018-04-12T04:55:08.259Z,74.10
2018-04-12T04:57:35.763Z,74.40
2018-04-12T05:00:03.289Z,74.30
2018-04-12T05:02:30.843Z,72.70
2018-04-12T05:04:58.343Z,72.00
2018-04-12T05:07:25.850Z,71.30
2018-04-12T05:09:53.479Z,70.20
2018-04-12T05:12:21.037Z,69.90
2018-04-12T05:14:48.538Z,69.50
2018-04-12T05:17:16.077Z,68.80
2018-04-12T05:19:43.563Z,69.30
2018-04-12T05:22:11.189Z,68.30
2018-04-12T05:24:38.679Z,67.50
2018-04-12T05:27:06.951Z,67.60
2018-04-12T05:29:35.261Z,68.30
2018-04-12T05:32:02.799Z,68.30
2018-04-12T05:34:30.295Z,67.90
2018-04-12T05:36:57.773Z,67.10
2018-04-12T05:39:25.387Z,66.50
2018-04-12T05:41:52.895Z,66.30
2018-04-12T05:44:20.383Z,66.00
2018-04-12T05:46:47.867Z,65.30
2018-04-12T05:49:15.400Z,65.20
2018-04-12T05:51:42.953Z,65.00
2018-04-12T05:54:10.512Z,64.90
2018-04-12T05:56:38.778Z,65.10
2018-04-12T05:59:06.289Z,65.60
2018-04-12T06:01:34.666Z,64.70
2018-04-12T06:04:02.189Z,64.80
2018-04-12T06:06:29.695Z,64.90
2018-04-12T06:08:57.166Z,65.00
2018-04-12T06:11:24.668Z,65.10
2018-04-12T06:13:52.181Z,65.30
2018-04-12T06:16:19.686Z,64.90
2018-04-12T06:18:47.183Z,64.90
2018-04-12T06:21:14.669Z,65.40
2018-04-12T06:23:42.191Z,65.90
2018-04-12T06:26:09.689Z,66.40
2018-04-12T06:28:37.925Z,66.70
2018-04-12T06:31:05.425Z,66.60
2018-04-12T06:33:33.666Z,66.40
2018-04-12T06:36:01.950Z,66.00
2018-04-12T06:38:29.444Z,66.00
2018-04-12T06:40:56.920Z,65.50
2018-04-12T06:43:24.389Z,65.60
2018-04-12T06:45:51.878Z,65.30
2018-04-12T06:48:19.369Z,64.60
2018-04-12T06:50:47.611Z,64.10
2018-04-12T06:53:15.071Z,64.10
2018-04-12T06:55:42.535Z,64.00
2018-04-12T06:58:10.013Z,64.00
2018-04-12T07:00:37.511Z,64.10
2018-04-12T07:03:05.011Z,64.00
2018-04-12T07:05:32.473Z,63.80
2018-04-12T07:07:59.990Z,63.90
2018-04-12T07:10:27.480Z,64.10
2018-04-12T07:12:54.974Z,64.20
2018-04-12T07:15:22.454Z,64.70
2018-04-12T07:17:50.722Z,65.60
2018-04-12T07:20:19.034Z,65.60
2018-04-12T07:22:46.531Z,65.60
2018-04-12T07:25:14.799Z,64.80
2018-04-12T07:27:43.053Z,64.10
2018-04-12T07:30:10.537Z,64.10
2018-04-12T07:32:38.785Z,62.70
2018-04-12T07:35:06.441Z,62.70
2018-04-12T07:37:33.929Z,62.00
2018-04-12T07:40:01.448Z,62.20
2018-04-12T07:42:28.964Z,60.90
2018-04-12T07:44:57.270Z,60.00
2018-04-12T07:47:25.525Z,59.80
2018-04-12T07:49:53.846Z,60.50
2018-04-12T07:52:21.404Z,59.80
2018-04-12T07:54:48.907Z,59.50
2018-04-12T07:57:16.516Z,59.40
2018-04-12T07:59:43.981Z,59.10
2018-04-12T08:02:11.460Z,58.70
2018-04-12T08:04:38.990Z,58.60
2018-04-12T08:07:07.226Z,57.70
2018-04-12T08:09:34.762Z,57.60
2018-04-12T08:12:02.252Z,57.40
2018-04-12T08:14:29.780Z,57.20
2018-04-12T08:16:57.290Z,57.10
2018-04-12T08:19:24.792Z,56.90
2018-04-12T08:21:52.325Z,57.00
2018-04-12T08:24:20.731Z,56.40
2018-04-12T08:26:48.338Z,56.40
2018-04-12T08:29:15.841Z,56.40
2018-04-12T08:31:43.344Z,56.40
2018-04-12T08:34:10.856Z,56.20
2018-04-12T08:36:38.378Z,56.30
2018-04-12T08:39:06.074Z,55.40
2018-04-12T08:41:35.068Z,53.60
2018-04-12T08:44:02.588Z,53.60
2018-04-12T08:46:30.105Z,52.50
2018-04-12T08:48:57.622Z,51.50
2018-04-12T08:51:25.149Z,50.90
2018-04-12T08:53:52.664Z,50.60
2018-04-12T08:56:20.921Z,49.30
2018-04-12T08:58:48.463Z,49.20
2018-04-12T09:01:15.997Z,48.40
2018-04-12T09:03:44.276Z,48.40
2018-04-12T09:06:11.831Z,48.40
2018-04-12T09:08:39.393Z,47.60
2018-04-12T09:11:06.953Z,47.40
2018-04-12T09:13:34.431Z,47.50
2018-04-12T09:16:02.740Z,46.90
2018-04-12T09:18:30.219Z,46.90
2018-04-12T09:20:57.761Z,47.10
2018-04-12T09:23:25.237Z,47.60
2018-04-12T09:25:52.727Z,47.70
2018-04-12T09:28:20.261Z,47.10
2018-04-12T09:30:47.769Z,46.50
2018-04-12T09:33:15.346Z,46.40
2018-04-12T09:35:43.019Z,46.20
2018-04-12T09:38:10.508Z,45.20
2018-04-12T09:40:38.139Z,45.40
2018-04-12T09:43:05.632Z,45.70
2018-04-12T09:45:33.943Z,45.00
2018-04-12T09:48:01.599Z,45.00
2018-04-12T09:50:29.079Z,44.80
2018-04-12T09:52:56.715Z,44.60
2018-04-12T09:55:24.975Z,43.80
2018-04-12T09:57:52.697Z,43.80
2018-04-12T10:00:25.890Z,44.00
2018-04-12T10:02:56.208Z,43.60
2018-04-12T10:05:29.574Z,43.20
2018-04-12T10:08:03.553Z,42.80
2018-04-12T10:10:31.058Z,42.70
2018-04-12T10:12:58.549Z,42.30
2018-04-12T10:15:26.195Z,41.70
2018-04-12T10:17:53.682Z,41.20
2018-04-12T10:20:21.189Z,41.30
2018-04-12T10:22:48.772Z,41.70
2018-04-12T10:25:16.300Z,42.20
2018-04-12T10:27:43.793Z,42.30
2018-04-12T10:30:11.371Z,42.10
2018-04-12T10:32:39.682Z,41.70
2018-04-12T10:35:08.200Z,41.70
2018-04-12T10:37:35.729Z,41.40
2018-04-12T10:40:03.247Z,40.80
2018-04-12T10:42:31.513Z,40.20
2018-04-12T10:44:59.065Z,40.20
2018-04-12T10:47:26.535Z,39.80
2018-04-12T10:49:54.015Z,39.70
2018-04-12T10:52:21.506Z,39.20
2018-04-12T10:54:49.006Z,38.90
2018-04-12T10:57:16.470Z,38.70
2018-04-12T10:59:43.960Z,39.30
2018-04-12T11:02:12.275Z,39.60
2018-04-12T11:04:39.833Z,39.50
2018-04-12T11:07:07.353Z,38.90
2018-04-12T11:09:34.838Z,38.60
2018-04-12T11:12:02.389Z,38.40
2018-04-12T11:14:29.897Z,38.20
2018-04-12T11:16:57.383Z,38.00
2018-04-12T11:19:24.901Z,38.40
2018-04-12T11:21:52.415Z,38.30
2018-04-12T11:24:20.058Z,37.70
2018-04-12T11:26:49.041Z,37.50
2018-04-12T11:29:16.522Z,37.50
2018-04-12T11:31:44.031Z,37.80
2018-04-12T11:34:11.673Z,37.90
2018-04-12T11:36:39.246Z,38.00
2018-04-12T11:39:06.726Z,38.10
2018-04-12T11:41:34.206Z,37.90
2018-04-12T11:44:01.821Z,37.80
2018-04-12T11:46:29.349Z,37.60
2018-04-12T11:48:56.836Z,37.30
2018-04-12T11:51:25.241Z,37.30
2018-04-12T11:53:52.902Z,37.30
2018-04-12T11:56:21.205Z,36.60
2018-04-12T11:58:48.688Z,36.50
2018-04-12T12:01:17.888Z,36.80
2018-04-12T12:03:45.350Z,36.50
2018-04-12T12:06:12.860Z,36.30
2018-04-12T12:08:41.125Z,35.40
2018-04-12T12:11:09.376Z,35.80
2018-04-12T12:13:36.874Z,35.20
2018-04-12T12:16:05.168Z,35.90
2018-04-12T12:18:33.446Z,35.70
2018-04-12T12:21:01.029Z,35.60
2018-04-12T12:23:28.521Z,35.30
2018-04-12T12:25:56.101Z,35.40
2018-04-12T12:28:24.406Z,35.20
2018-04-12T12:30:51.894Z,35.20
2018-04-12T12:33:19.403Z,34.60
2018-04-12T12:35:46.951Z,34.60
2018-04-12T12:38:14.547Z,34.90
2018-04-12T12:40:48.045Z,35.20
2018-04-12T12:43:15.603Z,34.80
2018-04-12T12:45:48.769Z,33.50
2018-04-12T12:48:22.063Z,33.30
2018-04-12T12:50:55.398Z,33.30
2018-04-12T12:53:23.018Z,33.10
2018-04-12T12:55:50.483Z,32.50
2018-04-12T12:58:18.757Z,32.30
2018-04-12T13:00:46.485Z,31.90
2018-04-12T13:03:14.025Z,31.70
2018-04-12T13:05:48.089Z,32.00
2018-04-12T13:08:15.595Z,31.90
2018-04-12T13:10:43.868Z,32.00
2018-04-12T13:13:12.155Z,31.70
2018-04-12T13:15:47.062Z,30.50
2018-04-12T13:18:20.265Z,30.50
2018-04-12T13:21:00.248Z,30.10
2018-04-12T13:23:27.739Z,30.10
2018-04-12T13:25:56.003Z,30.70
2018-04-12T13:28:24.249Z,29.90
2018-04-12T13:30:51.725Z,29.90
2018-04-12T13:33:19.195Z,30.00
2018-04-12T13:35:52.591Z,29.80
2018-04-12T13:38:25.921Z,29.60
2018-04-12T13:40:53.417Z,29.80
2018-04-12T13:43:21.719Z,30.10
2018-04-12T13:45:49.196Z,30.00
2018-04-12T13:48:23.146Z,30.50
2018-04-12T13:50:56.306Z,30.60
2018-04-12T13:53:23.819Z,30.90
2018-04-12T13:55:52.064Z,30.70
2018-04-12T13:58:25.603Z,30.60
2018-04-12T14:00:53.906Z,30.80
2018-04-12T14:03:22.174Z,30.80
2018-04-12T14:05:50.494Z,30.70
2018-04-12T14:08:17.970Z,30.70
2018-04-12T14:10:57.198Z,30.00
2018-04-12T14:13:24.682Z,29.90
2018-04-12T14:15:52.201Z,29.80
2018-04-12T14:18:21.585Z,29.80
2018-04-12T14:20:49.157Z,29.90
2018-04-12T14:23:16.627Z,29.60
2018-04-12T14:25:44.175Z,30.10
2018-04-12T14:28:11.986Z,30.50
2018-04-12T14:30:39.592Z,30.70
2018-04-12T14:33:19.012Z,30.60
2018-04-12T14:35:47.273Z,30.60
2018-04-12T14:38:15.591Z,30.50
2018-04-12T14:40:43.062Z,30.40
2018-04-12T14:43:10.573Z,30.60
2018-04-12T14:45:38.077Z,30.70
2018-04-12T14:48:11.369Z,31.00
2018-04-12T14:50:38.892Z,31.90
2018-04-12T14:53:07.214Z,33.50
2018-04-12T14:55:34.712Z,32.70
2018-04-12T14:58:02.950Z,33.40
2018-04-12T15:00:37.021Z,33.80
2018-04-12T15:03:04.528Z,33.80
2018-04-12T15:05:32.033Z,34.30
2018-04-12T15:07:59.500Z,34.70
2018-04-12T15:10:27.050Z,35.20
2018-04-12T15:13:00.522Z,35.60
2018-04-12T15:15:28.032Z,35.90
2018-04-12T15:17:55.521Z,36.30
2018-04-12T15:20:22.998Z,36.60
2018-04-12T15:22:51.300Z,37.30
2018-04-12T15:25:24.588Z,37.30
2018-04-12T15:27:57.947Z,37.60
2018-04-12T15:30:26.215Z,37.80
2018-04-12T15:32:53.719Z,37.80
2018-04-12T15:35:21.246Z,38.00
2018-04-12T15:37:48.736Z,38.30
2018-04-12T15:40:17.403Z,38.50
2018-04-12T15:42:44.907Z,38.70
2018-04-12T15:45:13.193Z,39.20
2018-04-12T15:47:47.393Z,39.40
2018-04-12T15:50:20.681Z,39.40
2018-04-12T15:52:54.091Z,39.50
2018-04-12T15:55:33.498Z,40.00
2018-04-12T15:58:00.981Z,40.30
2018-04-12T16:00:28.479Z,40.20
2018-04-12T16:02:55.987Z,40.30
2018-04-12T16:05:24.249Z,40.70
2018-04-12T16:07:52.565Z,40.90
2018-04-12T16:10:20.032Z,40.90
2018-04-12T16:12:47.523Z,40.90
2018-04-12T16:15:15.028Z,41.20
2018-04-12T16:17:42.535Z,41.50
2018-04-12T16:20:15.890Z,41.60
2018-04-12T16:22:43.398Z,42.00
2018-04-12T16:25:17.437Z,42.60
2018-04-12T16:27:44.982Z,42.60
2018-04-12T16:30:12.458Z,42.80
2018-04-12T16:32:46.547Z,43.50
2018-04-12T16:35:14.888Z,43.70
2018-04-12T16:37:42.432Z,43.80
2018-04-12T16:40:09.917Z,44.00
2018-04-12T16:42:38.189Z,44.60
2018-04-12T16:45:06.431Z,44.90
2018-04-12T16:47:39.790Z,44.90
2018-04-12T16:50:08.061Z,45.10
2018-04-12T16:52:47.182Z,45.10
2018-04-12T16:55:15.499Z,45.90
2018-04-12T16:57:48.900Z,45.30
2018-04-12T17:00:16.382Z,45.60
2018-04-12T17:02:43.911Z,45.90
2018-04-12T17:05:11.973Z,46.00
2018-04-12T17:07:40.294Z,46.40
2018-04-12T17:10:07.845Z,46.30
2018-04-12T17:12:41.274Z,46.10
2018-04-12T17:15:21.201Z,45.40
2018-04-12T17:17:48.690Z,44.40
2018-04-12T17:20:28.039Z,44.30
2018-04-12T17:22:55.552Z,44.40
2018-04-12T17:25:23.060Z,44.70
2018-04-12T17:27:56.446Z,44.90
2018-04-12T17:30:24.456Z,45.10
2018-04-12T17:32:52.795Z,45.80
2018-04-12T17:35:21.051Z,46.00
2018-04-12T17:37:48.531Z,45.90
2018-04-12T17:40:16.838Z,46.30
2018-04-12T17:42:50.962Z,46.50
2018-04-12T17:45:18.516Z,46.50
2018-04-12T17:47:51.769Z,46.70
2018-04-12T17:50:19.258Z,46.80
2018-04-12T17:52:46.824Z,46.90
2018-04-12T17:55:20.124Z,46.90
2018-04-12T17:57:47.647Z,46.90
2018-04-12T18:00:15.951Z,46.90
2018-04-12T18:02:43.449Z,46.80
2018-04-12T18:05:11.709Z,47.20
2018-04-12T18:07:45.811Z,47.30
2018-04-12T18:10:19.112Z,47.20
2018-04-12T18:12:46.617Z,47.40
2018-04-12T18:15:14.134Z,47.50
2018-04-12T18:17:53.469Z,47.60
2018-04-12T18:20:20.970Z,47.90
2018-04-12T18:22:54.389Z,48.00
2018-04-12T18:25:21.887Z,48.30
2018-04-12T18:27:49.352Z,48.40
2018-04-12T18:30:16.846Z,48.50
2018-04-12T18:32:44.340Z,48.70
2018-04-12T18:35:12.600Z,49.30
2018-04-12T18:37:45.875Z,49.20
2018-04-12T18:40:19.346Z,49.40
2018-04-12T18:42:46.884Z,49.50
2018-04-12T18:45:15.108Z,49.70
2018-04-12T18:47:42.650Z,49.60
2018-04-12T18:50:10.106Z,49.80
2018-04-12T18:52:37.608Z,49.90
2018-04-12T18:55:05.122Z,50.10
2018-04-12T18:57:39.306Z,50.60
2018-04-12T19:00:06.799Z,50.40
2018-04-12T19:02:46.050Z,50.50
2018-04-12T19:05:13.535Z,50.50
2018-04-12T19:07:41.044Z,50.80
2018-04-12T19:10:08.616Z,51.10
2018-04-12T19:12:36.084Z,51.60
2018-04-12T19:15:10.308Z,51.60
2018-04-12T19:17:44.456Z,51.70
2018-04-12T19:20:11.947Z,51.60
2018-04-12T19:22:45.482Z,51.70
2018-04-12T19:25:12.985Z,51.60
2018-04-12T19:27:40.502Z,51.70
2018-04-12T19:30:13.937Z,51.90
2018-04-12T19:32:42.258Z,53.50
2018-04-12T19:35:09.741Z,53.40
2018-04-12T19:37:37.259Z,54.50
2018-04-12T19:40:04.821Z,54.40
2018-04-12T19:42:32.316Z,55.60
2018-04-12T19:44:59.836Z,56.30
2018-04-12T19:47:27.357Z,56.80
2018-04-12T19:49:54.900Z,56.10
2018-04-12T19:52:28.381Z,55.80
2018-04-12T19:55:02.399Z,54.20
2018-04-12T19:57:29.930Z,54.20
2018-04-12T19:59:57.451Z,53.90
2018-04-12T20:02:31.547Z,53.80
2018-04-12T20:04:59.056Z,53.80
2018-04-12T20:07:26.686Z,54.90
2018-04-12T20:10:00.283Z,54.90
2018-04-12T20:12:27.776Z,54.50
2018-04-12T20:14:55.257Z,55.10
2018-04-12T20:17:28.547Z,55.70
2018-04-12T20:19:56.017Z,56.40
2018-04-12T20:22:23.527Z,56.90
2018-04-12T20:24:51.085Z,58.10
2018-04-12T20:27:19.320Z,57.30
2018-04-12T20:29:46.859Z,57.30
2018-04-12T20:32:20.370Z,57.80
2018-04-12T20:34:53.505Z,59.00
2018-04-12T20:37:21.038Z,59.60
2018-04-12T20:39:54.491Z,60.20
2018-04-12T20:42:22.095Z,61.00
2018-04-12T20:44:55.201Z,61.60
2018-04-12T20:47:22.736Z,62.20
2018-04-12T20:49:55.879Z,62.10
2018-04-12T20:52:23.388Z,62.80
2018-04-12T20:54:50.894Z,63.30
2018-04-12T20:57:24.034Z,63.50
2018-04-12T20:59:51.652Z,64.00
2018-04-12T21:02:19.182Z,64.50
2018-04-12T21:04:47.438Z,65.20
2018-04-12T21:07:14.933Z,65.20
2018-04-12T21:09:42.405Z,65.50
2018-04-12T21:12:15.759Z,66.10
2018-04-12T21:14:43.321Z,66.30
2018-04-12T21:17:10.831Z,66.50
2018-04-12T21:19:44.293Z,66.50
2018-04-12T21:22:12.600Z,66.80
2018-04-12T21:24:46.825Z,66.70
2018-04-12T21:27:15.094Z,68.10
2018-04-12T21:29:42.703Z,67.30
2018-04-12T21:32:10.964Z,67.80
2018-04-12T21:34:44.523Z,67.80
2018-04-12T21:37:18.971Z,68.00
2018-04-12T21:39:52.374Z,67.40
2018-04-12T21:42:31.673Z,67.00
2018-04-12T21:45:10.815Z,66.60
2018-04-12T21:47:39.090Z,67.20
2018-04-12T21:50:12.920Z,67.70
2018-04-12T21:52:46.354Z,67.50
2018-04-12T21:55:25.819Z,68.40
2018-04-12T21:57:53.288Z,68.60
2018-04-12T22:00:20.805Z,68.70
2018-04-12T22:02:54.125Z,68.70
2018-04-12T22:05:21.734Z,69.20
2018-04-12T22:07:49.231Z,68.80
2018-04-12T22:10:16.724Z,68.40
2018-04-12T22:12:45.014Z,68.90
2018-04-12T22:15:13.284Z,68.60
2018-04-12T22:17:40.763Z,68.60
2018-04-12T22:20:25.949Z,68.70
2018-04-12T22:23:00.155Z,68.70
2018-04-12T22:25:33.239Z,68.50
2018-04-12T22:28:00.866Z,68.60
2018-04-12T22:30:28.425Z,69.10
2018-04-12T22:33:01.705Z,69.60
2018-04-12T22:35:40.903Z,69.90
2018-04-12T22:38:08.447Z,70.20
2018-04-12T22:40:35.968Z,70.60
2018-04-12T22:43:03.576Z,70.40
2018-04-12T22:47:52.624Z,70.60
2018-04-12T22:50:20.111Z,70.50
2018-04-12T22:52:47.748Z,70.50
2018-04-12T22:55:15.276Z,70.50
2018-04-12T22:57:48.629Z,70.40
2018-04-12T23:00:17.113Z,71.00
2018-04-12T23:02:44.622Z,71.40
2018-04-12T23:05:12.955Z,71.50
2018-04-12T23:07:46.349Z,71.40
2018-04-12T23:10:19.623Z,71.40
2018-04-12T23:12:47.101Z,71.20
2018-04-12T23:15:26.210Z,70.70
2018-04-12T23:18:00.335Z,70.80
2018-04-12T23:20:27.831Z,70.80
2018-04-12T23:22:55.455Z,71.10
2018-04-12T23:25:29.605Z,71.10
2018-04-12T23:28:02.931Z,71.10
2018-04-12T23:30:30.417Z,70.50
2018-04-12T23:33:03.925Z,70.30
2018-04-12T23:35:31.434Z,70.60
2018-04-12T23:38:05.614Z,71.50
2018-04-12T23:40:39.011Z,71.00
2018-04-12T23:43:12.221Z,71.20
2018-04-12T23:45:40.474Z,71.80
2018-04-12T23:48:07.998Z,71.80
2018-04-12T23:50:35.511Z,72.10
2018-04-12T23:53:03.759Z,72.20
2018-04-12T23:55:31.267Z,72.20
2018-04-12T23:58:04.781Z,72.60
